sensor_id;sensor_type;location;lat;lon;timestamp;temperature;humidity
9265;DHT22;4669;49.594;10.958;2024-01-06T00:01:31;5.30;99.90
9265;DHT22;4669;49.594;10.958;2024-01-06T00:06:35;5.30;99.90
9265;DHT22;4669;49.594;10.958;2024-01-06T00:11:37;5.30;99.90
9265;DHT22;4669;49.594;10.958;2024-01-06T00:16:39;5.30;99.90
9265;DHT22;4669;49.594;10.958;2024-01-06T00:21:42;5.20;99.90
9265;DHT22;4669;49.594;10.958;2024-01-06T00:26:44;5.30;99.90
9265;DHT22;4669;49.594;10.958;2024-01-06T00:31:46;5.30;99.90
9265;DHT22;4669;49.594;10.958;2024-01-06T00:36:49;5.30;99.90
9265;DHT22;4669;49.594;10.958;2024-01-06T00:41:51;5.20;99.90
9265;DHT22;4669;49.594;10.958;2024-01-06T00:46:53;5.10;99.90
9265;DHT22;4669;49.594;10.958;2024-01-06T00:51:56;5.10;99.90
9265;DHT22;4669;49.594;10.958;2024-01-06T00:56:58;5.10;99.90
9265;DHT22;4669;49.594;10.958;2024-01-06T01:02:00;5.10;99.90
9265;DHT22;4669;49.594;10.958;2024-01-06T01:07:04;5.10;99.90
9265;DHT22;4669;49.594;10.958;2024-01-06T01:12:06;5.10;99.90
9265;DHT22;4669;49.594;10.958;2024-01-06T01:17:08;5.10;99.90
9265;DHT22;4669;49.594;10.958;2024-01-06T01:22:11;5.10;99.90
9265;DHT22;4669;49.594;10.958;2024-01-06T01:27:13;5.10;99.90
9265;DHT22;4669;49.594;10.958;2024-01-06T01:32:15;5.10;99.90
9265;DHT22;4669;49.594;10.958;2024-01-06T01:37:19;5.10;99.90
9265;DHT22;4669;49.594;10.958;2024-01-06T01:42:21;5.10;99.90
9265;DHT22;4669;49.594;10.958;2024-01-06T01:47:23;5.00;99.90
9265;DHT22;4669;49.594;10.958;2024-01-06T01:52:27;5.00;99.90
9265;DHT22;4669;49.594;10.958;2024-01-06T01:57:29;5.10;99.90
9265;DHT22;4669;49.594;10.958;2024-01-06T02:02:31;5.10;99.90
9265;DHT22;4669;49.594;10.958;2024-01-06T02:07:34;5.00;99.90
9265;DHT22;4669;49.594;10.958;2024-01-06T02:12:36;5.00;99.90
9265;DHT22;4669;49.594;10.958;2024-01-06T02:17:38;5.00;99.90
9265;DHT22;4669;49.594;10.958;2024-01-06T02:22:42;5.00;99.90
9265;DHT22;4669;49.594;10.958;2024-01-06T02:27:44;5.00;99.90
9265;DHT22;4669;49.594;10.958;2024-01-06T02:32:46;5.00;99.90
9265;DHT22;4669;49.594;10.958;2024-01-06T02:37:49;5.10;99.90
9265;DHT22;4669;49.594;10.958;2024-01-06T02:42:51;5.10;99.90
9265;DHT22;4669;49.594;10.958;2024-01-06T02:47:53;5.00;99.90
9265;DHT22;4669;49.594;10.958;2024-01-06T02:52:57;5.00;99.90
9265;DHT22;4669;49.594;10.958;2024-01-06T02:57:59;5.10;99.90
9265;DHT22;4669;49.594;10.958;2024-01-06T03:03:01;5.10;99.90
9265;DHT22;4669;49.594;10.958;2024-01-06T03:08:05;5.10;99.90
9265;DHT22;4669;49.594;10.958;2024-01-06T03:13:07;5.10;99.90
9265;DHT22;4669;49.594;10.958;2024-01-06T03:18:09;5.10;99.90
9265;DHT22;4669;49.594;10.958;2024-01-06T03:23:12;5.00;99.90
9265;DHT22;4669;49.594;10.958;2024-01-06T03:28:14;5.00;99.90
9265;DHT22;4669;49.594;10.958;2024-01-06T03:33:16;5.00;99.90
9265;DHT22;4669;49.594;10.958;2024-01-06T03:38:20;4.90;99.90
9265;DHT22;4669;49.594;10.958;2024-01-06T03:43:22;4.90;99.90
9265;DHT22;4669;49.594;10.958;2024-01-06T03:48:24;4.90;99.90
9265;DHT22;4669;49.594;10.958;2024-01-06T03:53:27;5.00;99.90
9265;DHT22;4669;49.594;10.958;2024-01-06T03:58:29;5.00;99.90
9265;DHT22;4669;49.594;10.958;2024-01-06T04:03:31;5.00;99.90
9265;DHT22;4669;49.594;10.958;2024-01-06T04:08:35;5.00;99.90
9265;DHT22;4669;49.594;10.958;2024-01-06T04:13:37;5.00;99.90
9265;DHT22;4669;49.594;10.958;2024-01-06T04:18:39;4.90;99.90
9265;DHT22;4669;49.594;10.958;2024-01-06T04:23:43;4.90;99.90
9265;DHT22;4669;49.594;10.958;2024-01-06T04:28:45;4.90;99.90
9265;DHT22;4669;49.594;10.958;2024-01-06T04:33:47;4.90;99.90
9265;DHT22;4669;49.594;10.958;2024-01-06T04:38:50;4.80;99.90
9265;DHT22;4669;49.594;10.958;2024-01-06T04:43:52;4.80;99.90
9265;DHT22;4669;49.594;10.958;2024-01-06T04:48:54;4.80;99.90
9265;DHT22;4669;49.594;10.958;2024-01-06T04:53:57;4.70;99.90
9265;DHT22;4669;49.594;10.958;2024-01-06T04:58:59;4.70;99.90
9265;DHT22;4669;49.594;10.958;2024-01-06T05:04:01;4.60;99.90
9265;DHT22;4669;49.594;10.958;2024-01-06T05:09:05;4.60;99.90
9265;DHT22;4669;49.594;10.958;2024-01-06T05:14:07;4.50;99.90
9265;DHT22;4669;49.594;10.958;2024-01-06T05:19:09;4.50;99.90
9265;DHT22;4669;49.594;10.958;2024-01-06T05:29:15;4.50;99.90
9265;DHT22;4669;49.594;10.958;2024-01-06T05:34:17;4.60;99.90
9265;DHT22;4669;49.594;10.958;2024-01-06T05:39:19;4.60;99.90
9265;DHT22;4669;49.594;10.958;2024-01-06T05:44:22;4.60;99.90
9265;DHT22;4669;49.594;10.958;2024-01-06T05:49:24;4.50;99.90
9265;DHT22;4669;49.594;10.958;2024-01-06T05:54:26;4.50;99.90
9265;DHT22;4669;49.594;10.958;2024-01-06T05:59:32;4.50;99.90
9265;DHT22;4669;49.594;10.958;2024-01-06T06:04:34;4.40;99.90
9265;DHT22;4669;49.594;10.958;2024-01-06T06:09:36;4.40;99.90
9265;DHT22;4669;49.594;10.958;2024-01-06T06:14:41;4.40;99.90
9265;DHT22;4669;49.594;10.958;2024-01-06T06:19:43;4.40;99.90
9265;DHT22;4669;49.594;10.958;2024-01-06T06:24:45;4.50;99.90
9265;DHT22;4669;49.594;10.958;2024-01-06T06:29:49;4.40;99.90
9265;DHT22;4669;49.594;10.958;2024-01-06T06:34:51;4.30;99.90
9265;DHT22;4669;49.594;10.958;2024-01-06T06:39:53;4.30;99.90
9265;DHT22;4669;49.594;10.958;2024-01-06T06:44:56;4.30;99.90
9265;DHT22;4669;49.594;10.958;2024-01-06T06:49:58;4.30;99.90
9265;DHT22;4669;49.594;10.958;2024-01-06T06:55:00;4.30;99.90
9265;DHT22;4669;49.594;10.958;2024-01-06T07:00:05;4.30;99.90
9265;DHT22;4669;49.594;10.958;2024-01-06T07:05:08;4.20;99.90
9265;DHT22;4669;49.594;10.958;2024-01-06T07:10:10;4.20;99.90
9265;DHT22;4669;49.594;10.958;2024-01-06T07:15:13;4.10;99.90
9265;DHT22;4669;49.594;10.958;2024-01-06T07:20:16;4.10;99.90
9265;DHT22;4669;49.594;10.958;2024-01-06T07:25:18;4.10;99.90
9265;DHT22;4669;49.594;10.958;2024-01-06T07:30:21;4.10;99.90
9265;DHT22;4669;49.594;10.958;2024-01-06T07:35:23;4.10;99.90
9265;DHT22;4669;49.594;10.958;2024-01-06T07:40:25;4.20;99.90
9265;DHT22;4669;49.594;10.958;2024-01-06T07:45:28;4.20;99.90
9265;DHT22;4669;49.594;10.958;2024-01-06T07:50:30;4.20;99.90
9265;DHT22;4669;49.594;10.958;2024-01-06T07:55:32;4.30;99.90
9265;DHT22;4669;49.594;10.958;2024-01-06T08:00:36;4.20;99.90
9265;DHT22;4669;49.594;10.958;2024-01-06T08:05:38;4.30;99.90
9265;DHT22;4669;49.594;10.958;2024-01-06T08:10:40;4.40;99.90
9265;DHT22;4669;49.594;10.958;2024-01-06T08:15:43;4.50;99.90
9265;DHT22;4669;49.594;10.958;2024-01-06T08:20:45;4.40;99.90
9265;DHT22;4669;49.594;10.958;2024-01-06T08:25:48;4.40;99.90
9265;DHT22;4669;49.594;10.958;2024-01-06T08:30:51;4.40;99.90
9265;DHT22;4669;49.594;10.958;2024-01-06T08:35:53;4.40;99.90
9265;DHT22;4669;49.594;10.958;2024-01-06T08:40:56;4.40;99.90
9265;DHT22;4669;49.594;10.958;2024-01-06T08:45:59;4.50;99.90
9265;DHT22;4669;49.594;10.958;2024-01-06T08:51:01;4.60;99.90
9265;DHT22;4669;49.594;10.958;2024-01-06T08:56:03;4.70;99.90
9265;DHT22;4669;49.594;10.958;2024-01-06T09:01:08;4.70;99.90
9265;DHT22;4669;49.594;10.958;2024-01-06T09:06:11;4.70;99.90
9265;DHT22;4669;49.594;10.958;2024-01-06T09:11:13;4.80;99.90
9265;DHT22;4669;49.594;10.958;2024-01-06T09:16:16;4.80;99.90
9265;DHT22;4669;49.594;10.958;2024-01-06T09:21:19;4.80;99.90
9265;DHT22;4669;49.594;10.958;2024-01-06T09:26:21;4.80;99.90
9265;DHT22;4669;49.594;10.958;2024-01-06T09:31:24;4.90;99.90
9265;DHT22;4669;49.594;10.958;2024-01-06T09:36:27;4.90;99.90
9265;DHT22;4669;49.594;10.958;2024-01-06T09:41:29;4.90;99.90
9265;DHT22;4669;49.594;10.958;2024-01-06T09:46:32;4.90;99.90
9265;DHT22;4669;49.594;10.958;2024-01-06T09:51:36;5.00;99.90
9265;DHT22;4669;49.594;10.958;2024-01-06T09:56:42;5.10;99.90
9265;DHT22;4669;49.594;10.958;2024-01-06T10:01:50;5.20;99.90
9265;DHT22;4669;49.594;10.958;2024-01-06T10:06:53;5.20;99.90
9265;DHT22;4669;49.594;10.958;2024-01-06T10:11:56;5.30;99.90
9265;DHT22;4669;49.594;10.958;2024-01-06T10:17:00;5.30;99.90
9265;DHT22;4669;49.594;10.958;2024-01-06T10:22:02;5.20;99.90
9265;DHT22;4669;49.594;10.958;2024-01-06T10:27:05;5.20;99.90
9265;DHT22;4669;49.594;10.958;2024-01-06T10:32:08;5.30;99.90
9265;DHT22;4669;49.594;10.958;2024-01-06T10:37:10;5.30;99.90
9265;DHT22;4669;49.594;10.958;2024-01-06T10:42:13;5.50;99.90
9265;DHT22;4669;49.594;10.958;2024-01-06T10:47:18;5.50;99.90
9265;DHT22;4669;49.594;10.958;2024-01-06T10:52:21;5.60;99.90
9265;DHT22;4669;49.594;10.958;2024-01-06T10:57:24;5.70;99.90
9265;DHT22;4669;49.594;10.958;2024-01-06T11:02:31;5.70;99.90
9265;DHT22;4669;49.594;10.958;2024-01-06T11:07:33;5.60;99.90
9265;DHT22;4669;49.594;10.958;2024-01-06T11:12:36;5.60;99.90
9265;DHT22;4669;49.594;10.958;2024-01-06T11:17:52;5.60;99.90
9265;DHT22;4669;49.594;10.958;2024-01-06T11:23:17;5.60;99.90
9265;DHT22;4669;49.594;10.958;2024-01-06T11:28:19;5.60;99.90
9265;DHT22;4669;49.594;10.958;2024-01-06T11:33:22;5.70;99.90
9265;DHT22;4669;49.594;10.958;2024-01-06T11:38:27;5.70;99.90
9265;DHT22;4669;49.594;10.958;2024-01-06T11:43:29;5.70;99.90
9265;DHT22;4669;49.594;10.958;2024-01-06T11:48:34;5.70;99.90
9265;DHT22;4669;49.594;10.958;2024-01-06T11:53:37;5.70;99.90
9265;DHT22;4669;49.594;10.958;2024-01-06T11:58:39;5.70;99.90
9265;DHT22;4669;49.594;10.958;2024-01-06T12:03:44;5.70;99.90
9265;DHT22;4669;49.594;10.958;2024-01-06T12:08:46;5.80;99.90
9265;DHT22;4669;49.594;10.958;2024-01-06T12:13:48;5.80;99.90
9265;DHT22;4669;49.594;10.958;2024-01-06T12:18:51;5.80;99.90
9265;DHT22;4669;49.594;10.958;2024-01-06T12:24:12;5.80;99.90
9265;DHT22;4669;49.594;10.958;2024-01-06T12:29:14;5.80;99.90
9265;DHT22;4669;49.594;10.958;2024-01-06T12:34:18;5.80;99.90
9265;DHT22;4669;49.594;10.958;2024-01-06T12:39:20;5.80;99.90
9265;DHT22;4669;49.594;10.958;2024-01-06T12:44:23;5.80;99.90
9265;DHT22;4669;49.594;10.958;2024-01-06T12:49:27;5.90;99.90
9265;DHT22;4669;49.594;10.958;2024-01-06T12:54:29;5.80;99.90
9265;DHT22;4669;49.594;10.958;2024-01-06T12:59:31;6.00;99.90
9265;DHT22;4669;49.594;10.958;2024-01-06T13:04:35;6.00;99.90
9265;DHT22;4669;49.594;10.958;2024-01-06T13:09:38;6.00;99.90
9265;DHT22;4669;49.594;10.958;2024-01-06T13:14:40;6.00;99.90
9265;DHT22;4669;49.594;10.958;2024-01-06T13:19:46;6.00;99.90
9265;DHT22;4669;49.594;10.958;2024-01-06T13:24:48;5.90;99.90
9265;DHT22;4669;49.594;10.958;2024-01-06T13:29:50;5.80;99.90
9265;DHT22;4669;49.594;10.958;2024-01-06T13:34:53;5.80;99.90
9265;DHT22;4669;49.594;10.958;2024-01-06T13:40:02;5.80;99.90
9265;DHT22;4669;49.594;10.958;2024-01-06T13:45:08;5.80;99.90
9265;DHT22;4669;49.594;10.958;2024-01-06T13:50:13;5.70;99.90
9265;DHT22;4669;49.594;10.958;2024-01-06T13:55:15;5.70;99.90
9265;DHT22;4669;49.594;10.958;2024-01-06T14:00:17;5.80;99.90
9265;DHT22;4669;49.594;10.958;2024-01-06T14:05:22;5.80;99.90
9265;DHT22;4669;49.594;10.958;2024-01-06T14:10:24;5.80;99.90
9265;DHT22;4669;49.594;10.958;2024-01-06T14:15:27;5.80;99.90
9265;DHT22;4669;49.594;10.958;2024-01-06T14:20:32;5.80;99.90
9265;DHT22;4669;49.594;10.958;2024-01-06T14:25:38;5.80;99.90
9265;DHT22;4669;49.594;10.958;2024-01-06T14:30:40;5.90;99.90
9265;DHT22;4669;49.594;10.958;2024-01-06T14:35:43;5.80;99.90
9265;DHT22;4669;49.594;10.958;2024-01-06T14:40:46;5.80;99.90
9265;DHT22;4669;49.594;10.958;2024-01-06T14:45:48;5.80;99.90
9265;DHT22;4669;49.594;10.958;2024-01-06T14:50:52;5.80;99.90
9265;DHT22;4669;49.594;10.958;2024-01-06T14:55:54;5.70;99.90
9265;DHT22;4669;49.594;10.958;2024-01-06T15:00:56;5.70;99.90
9265;DHT22;4669;49.594;10.958;2024-01-06T15:06:01;5.60;99.90
9265;DHT22;4669;49.594;10.958;2024-01-06T15:11:04;5.60;99.90
9265;DHT22;4669;49.594;10.958;2024-01-06T15:16:07;5.50;99.90
9265;DHT22;4669;49.594;10.958;2024-01-06T15:21:10;5.50;99.90
9265;DHT22;4669;49.594;10.958;2024-01-06T15:26:21;5.50;99.90
9265;DHT22;4669;49.594;10.958;2024-01-06T15:31:23;5.50;99.90
9265;DHT22;4669;49.594;10.958;2024-01-06T15:36:26;5.50;99.90
9265;DHT22;4669;49.594;10.958;2024-01-06T15:41:28;5.40;99.90
9265;DHT22;4669;49.594;10.958;2024-01-06T15:46:30;5.40;99.90
9265;DHT22;4669;49.594;10.958;2024-01-06T15:51:34;5.40;99.90
9265;DHT22;4669;49.594;10.958;2024-01-06T15:56:35;5.50;99.90
9265;DHT22;4669;49.594;10.958;2024-01-06T16:01:37;5.50;99.90
9265;DHT22;4669;49.594;10.958;2024-01-06T16:06:41;5.50;99.90
9265;DHT22;4669;49.594;10.958;2024-01-06T16:11:44;5.50;99.90
9265;DHT22;4669;49.594;10.958;2024-01-06T16:16:46;5.50;99.90
9265;DHT22;4669;49.594;10.958;2024-01-06T16:21:49;5.50;99.90
9265;DHT22;4669;49.594;10.958;2024-01-06T16:26:52;5.50;99.90
9265;DHT22;4669;49.594;10.958;2024-01-06T16:31:54;5.40;99.90
9265;DHT22;4669;49.594;10.958;2024-01-06T16:36:57;5.40;99.90
9265;DHT22;4669;49.594;10.958;2024-01-06T16:41:59;5.40;99.90
9265;DHT22;4669;49.594;10.958;2024-01-06T16:47:01;5.40;99.90
9265;DHT22;4669;49.594;10.958;2024-01-06T16:52:05;5.40;99.90
9265;DHT22;4669;49.594;10.958;2024-01-06T16:57:07;5.40;99.90
9265;DHT22;4669;49.594;10.958;2024-01-06T17:02:09;5.40;99.90
9265;DHT22;4669;49.594;10.958;2024-01-06T17:07:12;5.40;99.90
9265;DHT22;4669;49.594;10.958;2024-01-06T17:12:14;5.40;99.90
9265;DHT22;4669;49.594;10.958;2024-01-06T17:17:17;5.40;99.90
9265;DHT22;4669;49.594;10.958;2024-01-06T17:22:20;5.40;99.90
9265;DHT22;4669;49.594;10.958;2024-01-06T17:27:23;5.40;99.90
9265;DHT22;4669;49.594;10.958;2024-01-06T17:32:24;5.40;99.90
9265;DHT22;4669;49.594;10.958;2024-01-06T17:37:28;5.40;99.90
9265;DHT22;4669;49.594;10.958;2024-01-06T17:42:30;5.40;99.90
9265;DHT22;4669;49.594;10.958;2024-01-06T17:47:32;5.40;99.90
9265;DHT22;4669;49.594;10.958;2024-01-06T17:52:37;5.40;99.90
9265;DHT22;4669;49.594;10.958;2024-01-06T17:57:39;5.40;99.90
9265;DHT22;4669;49.594;10.958;2024-01-06T18:02:43;5.40;99.90
9265;DHT22;4669;49.594;10.958;2024-01-06T18:07:48;5.40;99.90
9265;DHT22;4669;49.594;10.958;2024-01-06T18:12:50;5.40;99.90
9265;DHT22;4669;49.594;10.958;2024-01-06T18:17:52;5.40;99.90
9265;DHT22;4669;49.594;10.958;2024-01-06T18:22:56;5.40;99.90
9265;DHT22;4669;49.594;10.958;2024-01-06T18:27:59;5.30;99.90
9265;DHT22;4669;49.594;10.958;2024-01-06T18:33:02;5.30;99.90
9265;DHT22;4669;49.594;10.958;2024-01-06T18:38:05;5.30;99.90
9265;DHT22;4669;49.594;10.958;2024-01-06T18:43:07;5.30;99.90
9265;DHT22;4669;49.594;10.958;2024-01-06T18:48:09;5.30;99.90
9265;DHT22;4669;49.594;10.958;2024-01-06T18:53:13;5.30;99.90
9265;DHT22;4669;49.594;10.958;2024-01-06T18:58:15;5.20;99.90
9265;DHT22;4669;49.594;10.958;2024-01-06T19:03:17;5.20;99.90
9265;DHT22;4669;49.594;10.958;2024-01-06T19:08:20;5.20;99.90
9265;DHT22;4669;49.594;10.958;2024-01-06T19:13:22;5.10;99.90
9265;DHT22;4669;49.594;10.958;2024-01-06T19:18:24;5.10;99.90
9265;DHT22;4669;49.594;10.958;2024-01-06T19:23:28;5.10;99.90
9265;DHT22;4669;49.594;10.958;2024-01-06T19:28:30;5.10;99.90
9265;DHT22;4669;49.594;10.958;2024-01-06T19:33:32;5.10;99.90
9265;DHT22;4669;49.594;10.958;2024-01-06T19:38:35;5.10;99.90
9265;DHT22;4669;49.594;10.958;2024-01-06T19:43:37;5.10;99.90
9265;DHT22;4669;49.594;10.958;2024-01-06T19:48:40;5.10;99.90
9265;DHT22;4669;49.594;10.958;2024-01-06T19:53:43;5.00;99.90
9265;DHT22;4669;49.594;10.958;2024-01-06T19:58:45;5.00;99.90
9265;DHT22;4669;49.594;10.958;2024-01-06T20:03:47;5.10;99.90
9265;DHT22;4669;49.594;10.958;2024-01-06T20:08:51;5.00;99.90
9265;DHT22;4669;49.594;10.958;2024-01-06T20:13:53;5.00;99.90
9265;DHT22;4669;49.594;10.958;2024-01-06T20:18:55;4.90;99.90
9265;DHT22;4669;49.594;10.958;2024-01-06T20:23:59;4.90;99.90
9265;DHT22;4669;49.594;10.958;2024-01-06T20:29:01;4.90;99.90
9265;DHT22;4669;49.594;10.958;2024-01-06T20:34:03;4.80;99.90
9265;DHT22;4669;49.594;10.958;2024-01-06T20:39:07;4.80;99.90
9265;DHT22;4669;49.594;10.958;2024-01-06T20:44:10;4.80;99.90
9265;DHT22;4669;49.594;10.958;2024-01-06T20:49:13;4.80;99.90
9265;DHT22;4669;49.594;10.958;2024-01-06T20:54:16;4.80;99.90
9265;DHT22;4669;49.594;10.958;2024-01-06T20:59:18;4.80;99.90
9265;DHT22;4669;49.594;10.958;2024-01-06T21:04:20;4.80;99.90
9265;DHT22;4669;49.594;10.958;2024-01-06T21:09:26;4.70;99.90
9265;DHT22;4669;49.594;10.958;2024-01-06T21:14:28;4.70;99.90
9265;DHT22;4669;49.594;10.958;2024-01-06T21:19:30;4.70;99.90
9265;DHT22;4669;49.594;10.958;2024-01-06T21:24:33;4.70;99.90
9265;DHT22;4669;49.594;10.958;2024-01-06T21:29:35;4.70;99.90
9265;DHT22;4669;49.594;10.958;2024-01-06T21:34:37;4.70;99.90
9265;DHT22;4669;49.594;10.958;2024-01-06T21:39:41;4.70;99.90
9265;DHT22;4669;49.594;10.958;2024-01-06T21:44:43;4.70;99.90
9265;DHT22;4669;49.594;10.958;2024-01-06T21:49:45;4.70;99.90
9265;DHT22;4669;49.594;10.958;2024-01-06T21:54:48;4.60;99.90
9265;DHT22;4669;49.594;10.958;2024-01-06T21:59:50;4.60;99.90
9265;DHT22;4669;49.594;10.958;2024-01-06T22:04:52;4.60;99.90
9265;DHT22;4669;49.594;10.958;2024-01-06T22:09:55;4.60;99.90
9265;DHT22;4669;49.594;10.958;2024-01-06T22:14:57;4.70;99.90
9265;DHT22;4669;49.594;10.958;2024-01-06T22:20:00;4.60;99.90
9265;DHT22;4669;49.594;10.958;2024-01-06T22:25:03;4.60;99.90
9265;DHT22;4669;49.594;10.958;2024-01-06T22:30:06;4.70;99.90
9265;DHT22;4669;49.594;10.958;2024-01-06T22:35:09;4.70;99.90
9265;DHT22;4669;49.594;10.958;2024-01-06T22:40:13;4.70;99.90
9265;DHT22;4669;49.594;10.958;2024-01-06T22:45:15;4.80;99.90
9265;DHT22;4669;49.594;10.958;2024-01-06T22:50:17;4.70;99.90
9265;DHT22;4669;49.594;10.958;2024-01-06T22:55:21;4.70;99.90
